Dillingham, AK (99576)

6:45 PM AKDT on May 26, 2017 (GMT -0800)
Dillingham | | Change Station

Elev 85 ft 59.05 °N, 158.50 °W | Updated 49 minutes ago

Rain
Rain
44 °F
Feels Like 42 °F
N
4
Wind Variable Wind from ESE

Today
High -- | Low -- °F
--% Chance of Precip.
Yesterday
High -- | Low -- °F
Precip. -- in
Pressure 29.96 in
Visibility 10.0 miles
Clouds Scattered Clouds 2000 ft
Overcast 5000 ft
Windchill 42 °F
Dew Point 37 °F
Humidity 76%
Rainfall 0.09 in
Snow Depth Not available.
5:40 AM 11:22 PM
Waxing Crescent, 3% visible
METAR PADL 270156Z 12003KT 10SM SCT020 OVC050 07/03 A2994 RMK AO2 SLP144 T00670028
Pressure 29.96 in
Visibility 10.0 miles
Clouds Scattered Clouds 2000 ft
Overcast 5000 ft
Windchill 42 °F
Dew Point 37 °F
Humidity 76%
Rainfall 0.09 in
Snow Depth Not available.
5:40 AM 11:22 PM
Waxing Crescent, 3% visible
METAR PADL 270156Z 12003KT 10SM SCT020 OVC050 07/03 A2994 RMK AO2 SLP144 T00670028

Get Severe Weather Alerts

Thanks for signing up!

Be on the lookout for a verification email in your inbox.

You'll start receiving the daily forecast at 6 AM.

×

10-Day Weather Forecast

Almanac

Astronomy

May. 26, 2017 Rise Set
Actual Time
Civil Twilight
Nautical Twilight
Astronomical Twilight
Moon
Length of Visible Light
Length of Day
Tomorrow will be .
, % of the Moon is Illuminated

Today's Extremes

State Highs State Lows

Community

WunderPhotos

Category 6

Welcome to Category 6. This is the collective home for Weather Underground's featured writeups by Dr. Jeff Masters (right), Bob Henson (left), Chris Burt, and other regular contributors.

Nearby

Air Quality

  Air Quality AQ Index Pollutant
Not available.

Snow Depth

Station Depth Elevation

Earthquake Activity

City Distance Mag. Time & Date
Minimum magnitude displayed is 2.5.

Coastal Water Temperatures

Place Temperature

Stations

Nearby Weather Stations

Station Location Temp. Windchill Dew Point Humidity Wind Precip. Elev Updated Type
                   

Watches & Warnings

There are currently no watches in effect.